Time;durP1;ratioP1;P1;durP2;ratioP2;P2;SDS_P1;SDS_P2;PMS_P1;PMS_P2;Temp;Humidity;BMP_temperature;BMP_pressure;BME280_temperature;BME280_humidity;BME280_pressure;Samples;Min_cycle;Max_cycle;Signal;HPM_P1;HPM_P2
2022/03/22 00:01:48;;;;;;;59.13;41.97;;;;;;;8.25;76.18;102956.97;4989325;28;20116;-71
2022/03/22 00:04:14;;;;;;;59.20;43.03;;;;;;;8.22;76.41;102948.34;4980486;28;20026;-71
2022/03/22 00:06:41;;;;;;;61.35;42.40;;;;;;;8.18;75.98;102951.06;4987899;28;20030;-70
2022/03/22 00:09:07;;;;;;;57.60;40.05;;;;;;;8.16;76.11;102957.25;4971020;28;20487;-71
2022/03/22 00:11:33;;;;;;;57.70;41.22;;;;;;;8.12;76.15;102950.41;4983036;28;20037;-71
2022/03/22 00:13:58;;;;;;;57.90;42.75;;;;;;;8.08;76.21;102954.03;4973291;28;20027;-70
2022/03/22 00:16:24;;;;;;;59.75;41.35;;;;;;;8.03;76.82;102962.03;4970741;28;20026;-71
2022/03/22 00:18:49;;;;;;;54.75;40.20;;;;;;;7.97;76.46;102959.56;4984785;28;20033;-70
2022/03/22 00:21:15;;;;;;;59.72;41.30;;;;;;;7.94;76.74;102961.41;4990830;28;20356;-71
2022/03/22 00:23:40;;;;;;;59.58;41.25;;;;;;;7.90;76.67;102959.78;4989938;28;20026;-71
2022/03/22 00:26:05;;;;;;;61.75;42.20;;;;;;;7.85;76.53;102957.28;4990641;28;20026;-70
2022/03/22 00:28:31;;;;;;;63.08;40.55;;;;;;;7.82;76.79;102962.63;4985744;28;20030;-70
2022/03/22 00:30:56;;;;;;;55.78;40.53;;;;;;;7.78;76.98;102958.38;4988706;28;20468;-71
2022/03/22 00:33:22;;;;;;;60.97;43.17;;;;;;;7.74;77.26;102959.38;4989921;28;20026;-71
2022/03/22 00:35:48;;;;;;;61.33;42.13;;;;;;;7.70;77.24;102957.75;4988618;28;20050;-71
2022/03/22 00:38:16;;;;;;;57.38;40.33;;;;;;;7.67;77.21;102973.56;4989127;28;20069;-71
2022/03/22 00:40:42;;;;;;;61.03;42.72;;;;;;;7.63;77.39;102969.31;4989876;28;20479;-71
2022/03/22 00:43:08;;;;;;;59.83;42.00;;;;;;;7.58;77.40;102976.41;4981469;28;20057;-70
2022/03/22 00:45:34;;;;;;;61.60;42.55;;;;;;;7.55;77.17;102977.34;4980917;28;20096;-71
2022/03/22 00:48:02;;;;;;;57.20;40.97;;;;;;;7.54;77.89;102975.63;4989653;28;20026;-71
2022/03/22 00:50:33;;;;;;;57.08;40.50;;;;;;;7.53;77.85;102979.16;4980675;28;20022;-71
2022/03/22 00:52:59;;;;;;;61.60;39.90;;;;;;;7.55;77.97;102978.19;4968415;28;20030;-70
2022/03/22 00:55:27;;;;;;;58.05;39.70;;;;;;;7.57;78.95;102972.91;4969509;28;20391;-71
2022/03/22 00:57:53;;;;;;;58.50;39.88;;;;;;;7.54;78.59;102973.88;4968376;28;20031;-71
2022/03/22 01:00:20;;;;;;;57.10;39.00;;;;;;;7.55;78.21;102975.59;4985218;28;20065;-71
2022/03/22 01:02:51;;;;;;;61.75;38.92;;;;;;;7.60;78.29;102971.97;4989886;28;20026;-71
2022/03/22 01:05:19;;;;;;;56.25;38.80;;;;;;;7.65;78.64;102970.13;4989539;28;20419;-71
2022/03/22 01:07:47;;;;;;;53.92;37.38;;;;;;;7.68;78.15;102975.28;4990140;28;20022;-71
2022/03/22 01:10:15;;;;;;;56.80;37.13;;;;;;;7.70;78.20;102965.59;4989602;28;20022;-72
2022/03/22 01:12:43;;;;;;;51.85;36.85;;;;;;;7.74;77.86;102972.47;4969865;28;20026;-73
2022/03/22 01:15:15;;;;;;;55.38;36.33;;;;;;;7.77;77.93;102975.00;4970882;28;20031;-71
2022/03/22 01:17:40;;;;;;;52.33;35.05;;;;;;;7.79;77.96;102970.59;4972559;28;20030;-71
2022/03/22 01:20:09;;;;;;;50.25;34.60;;;;;;;7.76;77.71;102973.28;4989509;28;20041;-71
2022/03/22 01:22:38;;;;;;;47.58;33.55;;;;;;;7.81;77.20;102966.16;4990381;28;20023;-71
2022/03/22 01:25:06;;;;;;;48.65;33.58;;;;;;;7.84;77.69;102966.91;4989979;28;20030;-70
2022/03/22 01:27:31;;;;;;;47.17;32.33;;;;;;;7.83;77.30;102970.44;4989112;28;20509;-71
2022/03/22 01:29:57;;;;;;;50.20;33.42;;;;;;;7.82;77.41;102978.34;4988177;28;20027;-71
2022/03/22 01:32:22;;;;;;;46.38;31.38;;;;;;;7.82;77.21;102976.59;4988092;28;20194;-70
2022/03/22 01:34:47;;;;;;;48.72;31.98;;;;;;;7.83;77.14;102974.84;4984585;28;20029;-70
2022/03/22 01:37:12;;;;;;;44.30;31.45;;;;;;;7.84;77.33;102973.94;4988980;28;20065;-71
2022/03/22 01:39:38;;;;;;;47.13;31.90;;;;;;;7.82;77.47;102971.34;4989277;28;20022;-71
2022/03/22 01:42:04;;;;;;;44.65;31.10;;;;;;;7.88;77.35;102978.19;4991156;28;20046;-71
2022/03/22 01:44:29;;;;;;;42.58;30.40;;;;;;;7.91;77.12;102975.47;4989266;28;20088;-70
2022/03/22 01:47:01;;;;;;;40.53;28.80;;;;;;;7.95;76.59;102976.22;4989354;28;20018;-70
2022/03/22 01:49:27;;;;;;;43.60;28.83;;;;;;;7.99;76.05;102970.84;4987146;28;20034;-73
2022/03/22 01:51:54;;;;;;;40.33;28.58;;;;;;;8.03;76.55;102972.50;4977055;28;20026;-71
2022/03/22 01:54:19;;;;;;;41.17;27.95;;;;;;;8.06;76.16;102976.81;4978143;28;20105;-71
2022/03/22 01:56:45;;;;;;;38.60;28.45;;;;;;;8.09;75.99;102977.56;4987339;28;20117;-70
2022/03/22 01:59:10;;;;;;;43.70;27.95;;;;;;;8.13;75.94;102963.47;4989031;28;20085;-70
2022/03/22 02:07:06;;;;;;;38.58;27.23;;;;;;;8.21;75.09;102960.59;4993116;28;20438;-70
2022/03/22 02:09:32;;;;;;;37.85;27.30;;;;;;;8.23;75.50;102952.69;4993089;28;20158;-71
2022/03/22 02:11:58;;;;;;;37.30;26.45;;;;;;;8.24;75.19;102959.66;4976640;28;20395;-71
2022/03/22 02:14:23;;;;;;;39.25;28.27;;;;;;;8.24;75.17;102963.13;4973731;28;20023;-70
2022/03/22 02:16:49;;;;;;;41.50;27.20;;;;;;;8.25;75.14;102950.88;4972974;28;20109;-71
2022/03/22 02:19:15;;;;;;;34.83;25.38;;;;;;;8.26;75.00;102955.22;4988460;28;20545;-70
2022/03/22 02:21:41;;;;;;;36.55;25.42;;;;;;;8.26;75.02;102949.97;4992849;28;20041;-70
2022/03/22 02:24:07;;;;;;;35.70;25.23;;;;;;;8.28;74.64;102950.78;4992271;28;20110;-70
2022/03/22 02:26:32;;;;;;;35.83;26.50;;;;;;;8.27;74.85;102949.94;4991479;28;20022;-70
2022/03/22 02:28:59;;;;;;;35.47;26.10;;;;;;;8.28;74.27;102950.78;4992230;28;20057;-70
2022/03/22 02:31:26;;;;;;;40.42;25.95;;;;;;;8.29;74.20;102949.88;4990369;28;20027;-70
2022/03/22 02:33:52;;;;;;;36.30;25.83;;;;;;;8.28;74.41;102951.63;4991444;28;20026;-70
2022/03/22 02:36:17;;;;;;;35.92;25.13;;;;;;;8.28;74.41;102956.03;4972217;28;20059;-70
2022/03/22 02:38:43;;;;;;;36.30;24.70;;;;;;;8.27;74.56;102955.16;4984725;28;20034;-70
2022/03/22 02:41:16;;;;;;;33.63;24.40;;;;;;;8.26;74.14;102957.84;4990832;28;20030;-71
2022/03/22 02:43:42;;;;;;;32.63;23.85;;;;;;;8.27;74.53;102954.31;4982440;28;20034;-70
2022/03/22 02:46:07;;;;;;;35.08;24.98;;;;;;;8.26;74.17;102952.59;4972439;28;20027;-70
2022/03/22 02:48:34;;;;;;;34.20;24.33;;;;;;;8.25;74.44;102956.13;4972840;28;20029;-70
2022/03/22 02:51:00;;;;;;;36.55;24.98;;;;;;;8.21;74.40;102959.75;4971789;28;20438;-70
2022/03/22 02:53:25;;;;;;;36.70;25.05;;;;;;;8.18;73.84;102951.06;4995089;28;20034;-70
2022/03/22 02:55:51;;;;;;;34.95;24.30;;;;;;;8.16;74.09;102952.88;4991667;28;20031;-70
2022/03/22 02:58:16;;;;;;;34.05;25.05;;;;;;;8.13;74.66;102959.97;4991062;28;20064;-70
2022/03/22 03:00:41;;;;;;;33.25;23.58;;;;;;;8.12;74.28;102950.41;4988086;28;20034;-71
2022/03/22 03:03:07;;;;;;;35.55;24.35;;;;;;;8.05;74.25;102954.13;5008190;28;20029;-70
2022/03/22 03:05:33;;;;;;;35.35;24.23;;;;;;;7.98;74.55;102961.28;5008628;28;20033;-71
2022/03/22 03:07:58;;;;;;;34.03;24.15;;;;;;;7.90;74.65;102960.63;5011318;28;20025;-71
2022/03/22 03:10:24;;;;;;;36.03;24.65;;;;;;;7.82;75.06;102957.38;4990696;28;20026;-70
2022/03/22 03:13:04;;;;;;;31.15;23.92;;;;;;;7.77;74.82;102959.28;4990654;28;20018;-70
2022/03/22 03:15:30;;;;;;;34.58;24.15;;;;;;;7.65;75.17;102972.75;4990740;28;20497;-71
2022/03/22 03:17:57;;;;;;;34.03;24.13;;;;;;;7.57;75.23;102966.81;4991122;28;20042;-70
2022/03/22 03:20:22;;;;;;;32.45;24.67;;;;;;;7.49;75.88;102967.91;4991367;28;20031;-71
2022/03/22 03:22:47;;;;;;;35.20;24.88;;;;;;;7.51;75.91;102968.72;4992035;28;20030;-70
2022/03/22 03:25:13;;;;;;;34.05;25.25;;;;;;;7.46;76.53;102965.38;4991529;28;20030;-71
2022/03/22 03:27:38;;;;;;;35.15;24.42;;;;;;;7.48;76.25;102974.03;4988916;28;20053;-70
2022/03/22 03:30:05;;;;;;;33.42;24.50;;;;;;;7.46;76.27;102974.97;4991137;28;20117;-70
2022/03/22 03:32:31;;;;;;;34.95;24.98;;;;;;;7.45;76.40;102974.13;4991306;28;20113;-71
2022/03/22 03:34:57;;;;;;;40.80;25.60;;;;;;;7.40;76.21;102976.00;4990586;28;20116;-70
2022/03/22 03:37:29;;;;;;;35.13;24.65;;;;;;;7.38;76.61;102974.31;4990764;28;20096;-70
2022/03/22 03:39:54;;;;;;;33.60;24.33;;;;;;;7.30;76.40;102979.78;4969840;28;20519;-70
2022/03/22 03:42:20;;;;;;;35.78;24.58;;;;;;;7.24;76.76;102979.94;4979378;28;20064;-70
2022/03/22 03:47:30;;;;;;;33.72;23.88;;;;;;;7.13;76.93;102984.56;4990625;28;20114;-70
2022/03/22 03:50:00;;;;;;;34.65;24.65;;;;;;;7.05;76.68;102987.38;4990740;28;20133;-70
2022/03/22 03:52:27;;;;;;;35.25;24.90;;;;;;;7.02;76.86;102989.22;4989724;28;20078;-71
2022/03/22 03:54:53;;;;;;;36.60;24.98;;;;;;;6.97;77.39;102991.09;4990089;28;20467;-70
2022/03/22 03:57:20;;;;;;;34.63;24.58;;;;;;;6.91;77.41;102992.97;4988632;28;20114;-71
2022/03/22 03:59:46;;;;;;;35.35;23.58;;;;;;;6.90;77.56;102995.63;4983387;28;20113;-70
2022/03/22 04:02:11;;;;;;;33.47;24.95;;;;;;;6.92;77.63;102996.44;4970713;28;20101;-70
2022/03/22 04:04:39;;;;;;;33.33;24.80;;;;;;;6.96;77.49;103005.06;4971297;28;20090;-70
2022/03/22 04:07:06;;;;;;;36.83;24.60;;;;;;;7.00;77.69;102996.25;4969854;28;20023;-70
2022/03/22 04:09:33;;;;;;;32.08;24.30;;;;;;;7.04;77.63;102997.88;4978736;28;20041;-70
2022/03/22 04:11:59;;;;;;;34.05;24.30;;;;;;;7.09;77.13;103001.25;4990506;28;20101;-70
2022/03/22 04:14:25;;;;;;;34.13;24.00;;;;;;;7.12;77.19;103001.16;4988545;28;20030;-70
2022/03/22 04:16:51;;;;;;;39.88;24.13;;;;;;;7.15;76.92;103001.09;4978679;28;20038;-70
2022/03/22 04:19:16;;;;;;;32.15;24.02;;;;;;;7.19;76.66;103005.34;4988605;28;20023;-73
2022/03/22 04:21:42;;;;;;;33.15;23.77;;;;;;;7.20;76.11;103002.72;4990824;28;20025;-70
2022/03/22 04:24:09;;;;;;;33.65;23.38;;;;;;;7.21;76.22;103006.19;4990263;28;20080;-71
2022/03/22 04:26:39;;;;;;;33.72;23.17;;;;;;;7.24;76.28;103006.13;4991050;28;20434;-70
2022/03/22 04:34:33;;;;;;;34.58;23.48;;;;;;;7.16;76.21;103002.81;4990757;28;20454;-71
2022/03/22 04:37:01;;;;;;;33.38;23.40;;;;;;;7.12;76.70;103006.41;4988472;28;20073;-71
2022/03/22 04:39:29;;;;;;;32.65;24.15;;;;;;;7.02;76.33;102995.31;4988060;28;20081;-71
2022/03/22 04:41:56;;;;;;;32.88;24.17;;;;;;;6.96;76.45;102997.22;5005535;28;20023;-71
2022/03/22 04:44:22;;;;;;;31.95;23.08;;;;;;;6.87;76.23;102998.31;4989201;28;20030;-70
2022/03/22 04:46:47;;;;;;;35.38;24.10;;;;;;;6.77;76.39;103002.00;4987995;28;20109;-71
2022/03/22 04:49:12;;;;;;;35.08;25.20;;;;;;;6.69;76.67;103002.19;4981122;28;20030;-70
2022/03/22 04:57:06;;;;;;;34.55;24.13;;;;;;;6.46;77.22;103015.81;4988994;28;20049;-71
2022/03/22 04:59:32;;;;;;;34.25;24.50;;;;;;;6.40;77.52;103010.69;4988565;28;20533;-71
2022/03/22 05:01:59;;;;;;;34.35;24.20;;;;;;;6.38;78.11;103009.00;4985766;28;20038;-70
2022/03/22 05:04:24;;;;;;;34.25;24.45;;;;;;;6.39;78.36;103011.56;4998094;28;20113;-71
2022/03/22 05:06:50;;;;;;;33.03;24.58;;;;;;;6.43;78.29;103022.88;5007544;28;20109;-71
2022/03/22 05:09:15;;;;;;;33.33;24.85;;;;;;;6.47;78.55;103016.66;5005502;28;20466;-70
2022/03/22 05:11:40;;;;;;;35.28;24.30;;;;;;;6.49;78.04;103012.25;4988336;28;20030;-70
2022/03/22 05:14:06;;;;;;;32.40;23.77;;;;;;;6.48;78.03;103018.38;4989613;28;20080;-70
2022/03/22 05:16:32;;;;;;;34.40;24.52;;;;;;;6.45;78.20;103016.69;4989749;28;20026;-70
2022/03/22 05:18:58;;;;;;;32.65;24.05;;;;;;;6.40;78.46;103018.53;4986819;28;20450;-70
2022/03/22 05:21:25;;;;;;;33.53;23.92;;;;;;;6.37;78.59;103028.19;4989560;28;20031;-71
2022/03/22 05:23:51;;;;;;;34.95;24.90;;;;;;;6.32;78.38;103035.28;5001791;28;20398;-70
2022/03/22 05:26:17;;;;;;;34.55;24.48;;;;;;;6.27;78.38;103027.53;5008998;28;20463;-72
2022/03/22 05:28:44;;;;;;;35.83;24.67;;;;;;;6.23;79.01;103034.59;5009545;28;20048;-72
2022/03/22 05:31:12;;;;;;;33.95;24.73;;;;;;;6.21;78.96;103038.97;5009631;28;20041;-73
2022/03/22 05:33:38;;;;;;;32.88;24.23;;;;;;;6.16;79.04;103034.75;5001943;28;20487;-72
2022/03/22 05:36:04;;;;;;;34.58;24.23;;;;;;;6.14;79.06;103040.00;4987850;28;20080;-73
2022/03/22 05:38:30;;;;;;;34.63;24.63;;;;;;;6.13;79.02;103046.13;4988436;28;20040;-73
2022/03/22 05:40:56;;;;;;;37.83;24.75;;;;;;;6.13;78.80;103047.88;4982080;28;20193;-73
2022/03/22 05:43:22;;;;;;;36.20;24.88;;;;;;;6.14;79.31;103045.22;4996817;28;20080;-72
2022/03/22 05:45:50;;;;;;;33.80;24.95;;;;;;;6.12;79.23;103047.03;4993129;28;20091;-72
2022/03/22 05:48:16;;;;;;;37.00;24.60;;;;;;;6.12;79.65;103036.56;4990906;28;20045;-73
2022/03/22 05:50:42;;;;;;;37.30;25.27;;;;;;;6.15;79.01;103046.09;4991410;28;20440;-73
2022/03/22 05:53:07;;;;;;;42.50;26.30;;;;;;;6.17;79.29;103044.31;4992260;28;20031;-72
2022/03/22 05:55:32;;;;;;;36.55;26.00;;;;;;;6.16;79.14;103045.19;4992058;28;20116;-72
2022/03/22 05:57:58;;;;;;;36.60;25.48;;;;;;;6.16;78.79;103046.06;4992154;28;20037;-73
2022/03/22 06:00:23;;;;;;;39.42;25.40;;;;;;;6.13;79.43;103047.88;4991826;28;20022;-72
2022/03/22 06:02:49;;;;;;;36.35;25.08;;;;;;;6.12;79.24;103046.16;4991338;28;20383;-72
2022/03/22 06:05:15;;;;;;;38.45;25.33;;;;;;;6.10;78.85;103051.41;4992024;28;20034;-73
2022/03/22 06:07:41;;;;;;;40.40;27.10;;;;;;;6.09;79.83;103062.75;4989945;28;20026;-73
2022/03/22 06:10:09;;;;;;;37.42;25.50;;;;;;;6.11;79.62;103054.88;4990700;28;20483;-72
2022/03/22 06:12:45;;;;;;;43.47;27.85;;;;;;;6.18;79.71;103051.25;4992165;28;20080;-72
2022/03/22 06:15:15;;;;;;;37.95;26.48;;;;;;;6.23;79.65;103059.88;4991391;28;20079;-72
2022/03/22 06:17:49;;;;;;;37.00;26.42;;;;;;;6.25;79.56;103053.72;4990532;28;20501;-72
2022/03/22 06:20:16;;;;;;;40.33;26.52;;;;;;;6.33;79.16;103055.31;4989331;28;20084;-72
2022/03/22 06:22:42;;;;;;;40.05;28.02;;;;;;;6.37;78.67;103051.72;4989184;28;20031;-72
2022/03/22 06:25:08;;;;;;;41.80;27.45;;;;;;;6.41;78.97;103059.50;4992097;28;20026;-72
2022/03/22 06:27:35;;;;;;;44.78;27.67;;;;;;;6.48;78.66;103065.47;4991901;28;20030;-72
2022/03/22 06:30:06;;;;;;;39.97;27.15;;;;;;;6.52;78.21;103067.13;4990913;28;20037;-72
2022/03/22 06:32:31;;;;;;;40.95;26.73;;;;;;;6.59;78.32;103063.47;4991630;28;20027;-72
2022/03/22 06:34:57;;;;;;;35.58;26.20;;;;;;;6.63;77.70;103062.50;4989751;28;20038;-70
2022/03/22 06:37:22;;;;;;;40.28;27.73;;;;;;;6.68;77.89;103058.03;4989963;28;20046;-72
2022/03/22 06:39:48;;;;;;;40.85;28.20;;;;;;;6.74;77.03;103062.25;4989569;28;20395;-72
2022/03/22 06:42:13;;;;;;;41.65;26.75;;;;;;;6.79;77.58;103066.50;4990578;28;20038;-72
2022/03/22 06:44:40;;;;;;;42.97;27.77;;;;;;;6.83;77.07;103062.06;4988539;28;20332;-72
2022/03/22 06:47:05;;;;;;;39.67;26.40;;;;;;;6.90;77.35;103067.13;4990275;28;20026;-70
2022/03/22 06:49:31;;;;;;;38.65;27.15;;;;;;;6.94;77.17;103065.28;4991242;28;20034;-70
2022/03/22 06:51:56;;;;;;;44.50;28.27;;;;;;;6.99;76.83;103067.81;4991155;28;20026;-70
2022/03/22 06:54:22;;;;;;;37.05;27.52;;;;;;;7.04;76.79;103072.03;4991213;28;20033;-70
2022/03/22 06:56:47;;;;;;;41.50;27.67;;;;;;;7.09;76.29;103070.16;4990812;28;20030;-70
2022/03/22 06:59:12;;;;;;;42.30;27.80;;;;;;;7.15;75.75;103069.16;4990965;28;20041;-70
2022/03/22 07:01:38;;;;;;;40.35;27.90;;;;;;;7.20;77.04;103083.00;4990252;28;20444;-70
2022/03/22 07:04:03;;;;;;;44.03;28.08;;;;;;;7.24;76.83;103076.81;4990229;28;20076;-70
2022/03/22 07:06:29;;;;;;;39.75;28.85;;;;;;;7.29;76.14;103077.56;4991025;28;20439;-71
2022/03/22 07:08:54;;;;;;;42.22;29.00;;;;;;;7.36;76.06;103073.03;4990886;28;20109;-71
2022/03/22 07:14:04;;;;;;;44.60;29.35;;;;;;;7.52;75.77;103085.69;4987523;28;20132;-71
2022/03/22 07:16:29;;;;;;;43.00;28.50;;;;;;;7.56;75.05;103083.84;4988206;28;20034;-71
2022/03/22 07:18:54;;;;;;;45.42;28.38;;;;;;;7.65;75.15;103086.25;4989802;28;20053;-71
2022/03/22 07:21:20;;;;;;;42.15;28.35;;;;;;;7.72;74.94;103084.31;4986882;28;20042;-71
2022/03/22 07:23:45;;;;;;;45.78;28.35;;;;;;;7.80;75.03;103087.59;4988766;28;20104;-71
2022/03/22 07:26:10;;;;;;;40.83;27.15;;;;;;;7.87;74.20;103086.53;4987146;28;20532;-71
2022/03/22 07:28:36;;;;;;;47.47;28.50;;;;;;;7.95;74.10;103081.09;4990420;28;20034;-71
2022/03/22 07:31:02;;;;;;;39.78;28.50;;;;;;;8.05;73.98;103090.44;4988468;28;20034;-71
2022/03/22 07:33:28;;;;;;;42.50;28.00;;;;;;;8.12;73.95;103092.84;4989627;28;20052;-70
2022/03/22 07:35:53;;;;;;;39.53;27.38;;;;;;;8.18;73.30;103087.44;4990202;28;20065;-71
2022/03/22 07:38:19;;;;;;;37.50;27.10;;;;;;;8.29;73.25;103088.88;4990267;28;20059;-71
2022/03/22 07:40:44;;;;;;;38.05;27.33;;;;;;;8.36;73.07;103087.81;4990116;28;20031;-71
2022/03/22 07:43:09;;;;;;;39.95;27.67;;;;;;;8.44;73.00;103084.09;4990087;28;20022;-73
2022/03/22 07:45:34;;;;;;;40.60;26.98;;;;;;;8.54;72.05;103081.22;4989995;28;20033;-71
2022/03/22 07:48:03;;;;;;;39.13;27.60;;;;;;;8.61;71.77;103080.97;4989621;28;20080;-71
2022/03/22 07:53:12;;;;;;;42.13;26.90;;;;;;;8.88;70.92;103083.69;4988069;28;20041;-73
2022/03/22 07:55:40;;;;;;;42.15;26.75;;;;;;;8.95;70.80;103078.19;4990012;28;20030;-71
2022/03/22 07:58:06;;;;;;;39.83;25.90;;;;;;;9.09;70.16;103083.00;4988726;28;20022;-73
2022/03/22 08:00:37;;;;;;;38.22;25.73;;;;;;;9.26;69.90;103095.59;4988774;28;20026;-74
2022/03/22 08:03:04;;;;;;;39.28;26.80;;;;;;;9.34;69.16;103090.94;4987210;28;20034;-74
2022/03/22 08:05:31;;;;;;;42.42;27.40;;;;;;;9.46;69.72;103087.91;4990313;28;20034;-74
2022/03/22 08:07:59;;;;;;;38.03;26.33;;;;;;;9.61;68.39;103087.41;4988535;28;20085;-73
2022/03/22 08:10:25;;;;;;;39.05;26.08;;;;;;;9.76;67.79;103091.28;4989505;28;20034;-73
2022/03/22 08:12:52;;;;;;;36.10;25.95;;;;;;;9.86;67.58;103092.66;4989659;28;20077;-73
2022/03/22 08:15:17;;;;;;;41.97;27.02;;;;;;;10.01;66.54;103097.41;4989100;28;20157;-74
2022/03/22 08:17:44;;;;;;;38.90;25.95;;;;;;;10.15;66.87;103102.16;4971117;28;20027;-74
2022/03/22 08:20:12;;;;;;;33.92;24.95;;;;;;;10.28;66.45;103099.97;4987823;28;20106;-73
2022/03/22 08:22:54;;;;;;;39.50;27.20;;;;;;;10.38;66.78;103090.81;4987680;28;20054;-72
2022/03/22 08:25:34;;;;;;;38.85;25.77;;;;;;;10.53;66.48;103092.88;4989225;28;20030;-73
2022/03/22 08:28:01;;;;;;;38.72;25.50;;;;;;;10.68;65.38;103097.56;4982166;28;20018;-73
2022/03/22 08:30:28;;;;;;;37.83;25.50;;;;;;;10.81;64.30;103095.34;4969635;28;20116;-73
2022/03/22 08:32:56;;;;;;;37.92;25.05;;;;;;;10.98;63.32;103092.03;4987789;28;20032;-73
2022/03/22 08:35:25;;;;;;;39.58;26.08;;;;;;;11.05;63.38;103093.50;4986027;28;20090;-72
2022/03/22 08:37:52;;;;;;;36.80;24.52;;;;;;;11.18;63.19;103094.69;4988601;28;20446;-73
2022/03/22 08:40:17;;;;;;;36.00;24.90;;;;;;;11.33;61.91;103093.25;4988714;28;20026;-73
2022/03/22 08:42:45;;;;;;;35.47;25.08;;;;;;;11.44;63.02;103096.28;4986416;28;20362;-73
2022/03/22 08:45:15;;;;;;;38.33;24.17;;;;;;;11.56;61.73;103089.63;4986533;28;20030;-74
2022/03/22 08:47:41;;;;;;;36.17;24.35;;;;;;;11.69;61.35;103090.84;4984497;28;20028;-73
2022/03/22 08:50:11;;;;;;;39.35;24.83;;;;;;;11.83;60.57;103087.63;4980027;28;20026;-73
2022/03/22 08:52:41;;;;;;;34.35;23.95;;;;;;;11.95;60.44;103097.66;4986983;28;20454;-73
2022/03/22 08:55:08;;;;;;;35.33;23.67;;;;;;;12.06;59.76;103094.56;4982532;28;20050;-73
2022/03/22 08:57:35;;;;;;;33.47;23.88;;;;;;;12.17;59.42;103092.28;4986201;28;20025;-73
2022/03/22 09:00:01;;;;;;;36.50;24.25;;;;;;;12.29;58.25;103091.75;4985332;28;20084;-74
2022/03/22 09:02:27;;;;;;;37.80;24.40;;;;;;;12.41;58.17;103085.06;4986288;28;20030;-73
2022/03/22 09:07:36;;;;;;;37.58;24.55;;;;;;;12.59;58.60;103089.47;4986597;28;20112;-73
2022/03/22 09:10:01;;;;;;;35.05;23.25;;;;;;;12.76;57.02;103089.53;4985618;28;20030;-73
2022/03/22 09:12:26;;;;;;;41.00;24.30;;;;;;;12.82;57.43;103080.50;4987411;28;20131;-73
2022/03/22 09:14:53;;;;;;;34.70;23.40;;;;;;;12.90;55.62;103080.97;4987350;28;20468;-74
2022/03/22 09:17:20;;;;;;;35.47;22.10;;;;;;;13.05;55.52;103074.94;4987796;28;20068;-74
2022/03/22 09:19:46;;;;;;;34.58;22.92;;;;;;;13.20;54.10;103080.44;4988328;28;20543;-73
2022/03/22 09:22:12;;;;;;;34.88;23.70;;;;;;;13.30;54.52;103077.28;4986347;28;20105;-73
2022/03/22 09:24:37;;;;;;;34.53;23.48;;;;;;;13.40;54.89;103073.22;4985448;28;20057;-74
2022/03/22 09:27:03;;;;;;;37.20;23.58;;;;;;;13.52;54.62;103076.19;4988301;28;20388;-73
2022/03/22 09:29:29;;;;;;;34.40;24.02;;;;;;;13.66;54.11;103074.56;4987495;28;20482;-73
2022/03/22 09:31:55;;;;;;;36.85;23.27;;;;;;;13.79;53.85;103075.63;4986422;28;20034;-73
2022/03/22 09:34:21;;;;;;;37.83;24.27;;;;;;;13.90;53.93;103076.84;4988183;28;20037;-72
2022/03/22 09:36:47;;;;;;;39.60;24.60;;;;;;;14.04;52.63;103069.06;4985277;28;20081;-72
2022/03/22 09:39:12;;;;;;;38.78;25.00;;;;;;;14.12;52.09;103069.50;4988166;28;20061;-72
2022/03/22 09:41:38;;;;;;;37.30;24.27;;;;;;;14.26;52.19;103068.75;4988456;28;20034;-72
2022/03/22 09:44:04;;;;;;;36.45;24.58;;;;;;;14.35;51.86;103074.41;4982976;28;20134;-72
2022/03/22 09:46:32;;;;;;;36.90;24.58;;;;;;;14.47;52.03;103072.09;4985594;28;20022;-72
2022/03/22 09:48:58;;;;;;;41.15;24.50;;;;;;;14.59;51.70;103066.09;4987957;28;20022;-72
2022/03/22 09:54:07;;;;;;;35.15;23.40;;;;;;;14.81;51.11;103063.97;4986309;28;20545;-72
2022/03/22 09:56:32;;;;;;;34.67;23.65;;;;;;;14.95;49.25;103064.03;4986855;28;20057;-72
2022/03/22 09:59:03;;;;;;;37.83;24.65;;;;;;;15.05;50.67;103065.22;4986109;28;20061;-72
2022/03/22 10:01:30;;;;;;;38.70;23.73;;;;;;;15.20;48.70;103067.91;4987211;28;20033;-72
2022/03/22 10:04:00;;;;;;;41.08;25.38;;;;;;;15.33;49.71;103064.47;4988836;28;20030;-72
2022/03/22 10:06:30;;;;;;;41.38;24.85;;;;;;;15.45;48.17;103068.19;4988994;28;20597;-72
2022/03/22 10:08:56;;;;;;;32.22;23.95;;;;;;;15.58;48.01;103061.25;4989215;28;20109;-72
2022/03/22 10:11:21;;;;;;;37.83;24.25;;;;;;;15.69;47.28;103059.78;4988710;28;20030;-72
2022/03/22 10:13:54;;;;;;;36.45;23.80;;;;;;;15.81;48.20;103056.38;4988523;28;21083;-72
2022/03/22 10:16:19;;;;;;;;;;;;;;;15.84;51.69;103050.88;4987820;28;20054;-72
2022/03/22 10:18:45;;;;;;;37.13;26.15;;;;;;;16.02;48.21;103057.72;4987672;28;20003;-72
2022/03/22 10:21:10;;;;;;;37.35;25.48;;;;;;;16.15;48.42;103052.50;4988319;28;20109;-72
2022/03/22 10:23:48;;;;;;;34.85;25.35;;;;;;;16.34;47.78;103053.03;4986965;28;20033;-72
2022/03/22 10:26:14;;;;;;;38.08;23.77;;;;;;;16.52;44.70;103051.88;4988861;28;20030;-72
2022/03/22 10:28:49;;;;;;;35.05;24.27;;;;;;;16.64;45.41;103039.59;4991777;28;20034;-72
2022/03/22 10:31:15;;;;;;;38.72;25.73;;;;;;;16.78;44.01;103042.25;4992296;28;20030;-72
2022/03/22 10:33:50;;;;;;;42.72;25.65;;;;;;;16.87;44.65;103039.00;4991989;28;20029;-72
2022/03/22 10:36:19;;;;;;;36.15;24.30;;;;;;;17.06;42.79;103046.63;4991165;28;20185;-72
2022/03/22 10:38:53;;;;;;;39.33;24.95;;;;;;;17.18;43.94;103034.28;4992159;28;20026;-72
2022/03/22 10:41:24;;;;;;;38.28;24.50;;;;;;;17.30;43.13;103033.50;4991804;28;20109;-72
2022/03/22 10:44:07;;;;;;;35.45;24.10;;;;;;;17.50;44.54;103030.31;4989159;28;20037;-72
2022/03/22 10:46:34;;;;;;;36.00;24.55;;;;;;;17.70;41.89;103036.13;4989463;28;20105;-72
2022/03/22 10:49:09;;;;;;;40.20;24.70;;;;;;;17.85;41.96;103029.72;4987230;28;20030;-71
2022/03/22 10:51:45;;;;;;;36.38;24.52;;;;;;;18.09;41.18;103035.13;4989984;28;20106;-72
2022/03/22 10:54:13;;;;;;;34.63;25.05;;;;;;;18.23;40.74;103028.81;4991092;28;20538;-72
2022/03/22 10:56:59;;;;;;;33.88;22.83;;;;;;;18.36;43.47;103027.81;4987716;28;20018;-72
2022/03/22 10:59:27;;;;;;;35.85;22.90;;;;;;;18.52;41.44;103030.25;4987067;28;20487;-72
2022/03/22 11:01:53;;;;;;;38.20;24.33;;;;;;;18.68;41.46;103024.66;4987392;28;20043;-72
2022/03/22 11:04:19;;;;;;;31.90;22.85;;;;;;;18.88;39.70;103026.72;4986988;28;20034;-72
2022/03/22 11:06:48;;;;;;;42.80;23.95;;;;;;;19.07;39.35;103026.19;4988597;28;20406;-76
2022/03/22 11:09:14;;;;;;;33.58;22.92;;;;;;;19.28;38.58;103024.56;4986348;28;20041;-75
2022/03/22 11:11:40;;;;;;;31.85;21.30;;;;;;;19.40;39.47;103022.78;4989735;28;20022;-74
2022/03/22 11:14:05;;;;;;;29.92;20.63;;;;;;;19.53;37.52;103028.03;4986757;28;20155;-73
2022/03/22 11:16:33;;;;;;;32.15;22.20;;;;;;;19.61;38.09;103020.28;4972777;28;20038;-73
2022/03/22 11:19:00;;;;;;;29.02;20.25;;;;;;;19.76;37.69;103018.25;4987778;28;20054;-73
2022/03/22 11:21:27;;;;;;;28.65;19.25;;;;;;;19.87;38.62;103019.09;4988002;28;20041;-73
2022/03/22 11:24:03;;;;;;;26.58;17.75;;;;;;;19.99;38.86;103010.09;4985882;28;20058;-73
2022/03/22 11:26:28;;;;;;;29.15;20.48;;;;;;;19.96;35.94;103010.34;4989857;28;20113;-73
2022/03/22 11:28:55;;;;;;;32.40;20.65;;;;;;;20.15;36.20;103003.56;4987132;28;20101;-73
2022/03/22 11:31:24;;;;;;;29.05;19.48;;;;;;;20.37;37.15;103006.16;4985813;28;20549;-73
2022/03/22 11:36:43;;;;;;;31.25;21.00;;;;;;;20.66;36.45;103001.16;4990325;28;20096;-73
2022/03/22 11:39:14;;;;;;;30.13;19.90;;;;;;;20.83;37.05;102997.09;4984501;28;20026;-73
2022/03/22 11:44:35;;;;;;;29.23;20.55;;;;;;;20.85;36.64;102997.81;4989108;28;20108;-74
2022/03/22 11:47:06;;;;;;;31.02;20.65;;;;;;;21.00;35.24;102996.53;4989598;28;20014;-73
2022/03/22 11:49:47;;;;;;;28.02;18.83;;;;;;;21.14;37.47;102993.50;4990926;28;20680;-73